createdAt,value
2018-05-03T00:02:11.392Z,15.30
2018-05-03T00:04:39.726Z,15.30
2018-05-03T00:07:07.972Z,15.20
2018-05-03T00:09:36.511Z,15.20
2018-05-03T00:12:04.775Z,15.20
2018-05-03T00:14:33.016Z,15.30
2018-05-03T00:17:01.258Z,15.30
2018-05-03T00:19:29.696Z,15.30
2018-05-03T00:21:57.938Z,15.30
2018-05-03T00:24:26.174Z,15.30
2018-05-03T00:26:54.436Z,15.30
2018-05-03T00:29:22.677Z,15.30
2018-05-03T00:31:51.011Z,15.30
2018-05-03T00:34:19.265Z,15.20
2018-05-03T00:36:47.503Z,15.10
2018-05-03T00:39:16.060Z,15.00
2018-05-03T00:41:44.824Z,15.00
2018-05-03T00:44:13.189Z,14.90
2018-05-03T00:46:41.459Z,14.90
2018-05-03T00:49:09.932Z,14.90
2018-05-03T00:51:38.935Z,14.80
2018-05-03T00:54:27.763Z,14.80
2018-05-03T00:56:56.006Z,14.70
2018-05-03T00:59:24.320Z,14.60
2018-05-03T01:01:53.628Z,14.50
2018-05-03T01:04:22.728Z,14.60
2018-05-03T01:06:50.960Z,14.60
2018-05-03T01:09:23.371Z,14.70
2018-05-03T01:11:52.379Z,14.80
2018-05-03T01:14:21.428Z,14.70
2018-05-03T01:16:49.683Z,14.70
2018-05-03T01:19:17.918Z,14.60
2018-05-03T01:21:46.161Z,14.50
2018-05-03T01:24:14.612Z,14.50
2018-05-03T01:26:42.851Z,14.50
2018-05-03T01:29:11.087Z,14.50
2018-05-03T01:31:39.351Z,14.50
2018-05-03T01:34:07.587Z,14.50
2018-05-03T01:36:35.839Z,14.50
2018-05-03T01:39:04.099Z,14.60
2018-05-03T01:41:33.539Z,14.50
2018-05-03T01:44:02.542Z,14.40
2018-05-03T01:46:30.951Z,14.40
2018-05-03T01:48:59.283Z,14.40
2018-05-03T01:51:28.288Z,14.30
2018-05-03T01:53:57.314Z,14.30
2018-05-03T01:56:25.556Z,14.30
2018-05-03T01:58:54.067Z,14.30
2018-05-03T02:01:22.763Z,14.30
2018-05-03T02:03:51.815Z,14.20
2018-05-03T02:06:20.068Z,14.30
2018-05-03T02:08:48.724Z,14.30
2018-05-03T02:11:17.204Z,14.30
2018-05-03T02:13:45.811Z,14.20
2018-05-03T02:16:14.075Z,14.20
2018-05-03T02:18:42.320Z,14.20
2018-05-03T02:21:10.675Z,14.10
2018-05-03T02:23:39.712Z,14.10
2018-05-03T02:26:07.944Z,14.10
2018-05-03T02:28:36.187Z,14.10
2018-05-03T02:31:04.849Z,14.10
2018-05-03T02:33:33.972Z,14.10
2018-05-03T02:36:02.213Z,14.10
2018-05-03T02:38:30.599Z,14.00
2018-05-03T02:40:58.835Z,14.00
2018-05-03T02:43:27.320Z,13.90
2018-05-03T02:45:56.352Z,13.70
2018-05-03T02:48:24.699Z,13.70
2018-05-03T02:50:53.704Z,13.60
2018-05-03T02:53:22.409Z,13.60
2018-05-03T02:55:50.648Z,13.60
2018-05-03T02:58:30.707Z,13.70
2018-05-03T03:01:27.313Z,13.70
2018-05-03T03:04:12.982Z,13.70
2018-05-03T03:06:58.764Z,13.80
2018-05-03T03:13:17.191Z,13.70
2018-05-03T03:16:02.999Z,13.60
2018-05-03T03:18:48.667Z,13.50
2018-05-03T03:21:34.336Z,13.50
2018-05-03T03:24:19.952Z,13.40
2018-05-03T03:27:05.758Z,13.50
2018-05-03T03:29:45.763Z,13.60
2018-05-03T03:32:25.718Z,13.60
2018-05-03T03:38:26.911Z,13.30
2018-05-03T03:41:06.865Z,13.30
2018-05-03T03:43:47.753Z,13.30
2018-05-03T03:46:16.093Z,13.20
2018-05-03T03:48:45.107Z,13.10
2018-05-03T03:51:13.374Z,13.10
2018-05-03T03:53:41.607Z,13.00
2018-05-03T03:56:09.853Z,13.00
2018-05-03T03:58:38.284Z,13.00
2018-05-03T04:01:06.526Z,13.00
2018-05-03T04:03:34.789Z,13.00
2018-05-03T04:06:03.474Z,13.00
2018-05-03T04:08:31.713Z,13.10
2018-05-03T04:10:59.951Z,13.10
2018-05-03T04:13:28.612Z,13.00
2018-05-03T04:15:56.855Z,13.00
2018-05-03T04:18:36.988Z,13.10
2018-05-03T04:21:17.080Z,13.10
2018-05-03T04:24:07.319Z,13.20
2018-05-03T04:26:35.556Z,13.20
2018-05-03T04:29:03.858Z,13.30
2018-05-03T04:31:32.114Z,13.40
2018-05-03T04:34:00.497Z,13.40
2018-05-03T04:36:28.736Z,13.40
2018-05-03T04:38:56.999Z,13.60
2018-05-03T04:41:25.247Z,13.60
2018-05-03T04:43:53.829Z,13.60
2018-05-03T04:46:22.421Z,13.60
2018-05-03T04:48:50.653Z,13.80
2018-05-03T04:51:18.897Z,13.80
2018-05-03T04:53:47.161Z,13.70
2018-05-03T04:56:15.397Z,13.70
2018-05-03T04:58:43.659Z,13.70
2018-05-03T05:01:13.026Z,13.70
2018-05-03T05:03:41.504Z,13.70
2018-05-03T05:06:09.727Z,13.70
2018-05-03T05:08:38.307Z,13.70
2018-05-03T05:11:06.552Z,13.70
2018-05-03T05:13:34.798Z,13.80
2018-05-03T05:16:03.066Z,13.80
2018-05-03T05:18:31.303Z,13.80
2018-05-03T05:20:59.548Z,13.80
2018-05-03T05:23:27.819Z,13.70
2018-05-03T05:25:56.147Z,13.70
2018-05-03T05:28:24.432Z,13.70
2018-05-03T05:30:52.879Z,13.90
2018-05-03T05:33:23.698Z,13.90
2018-05-03T05:35:53.283Z,14.00
2018-05-03T05:38:21.551Z,14.00
2018-05-03T05:40:49.799Z,14.00
2018-05-03T05:43:18.115Z,14.00
2018-05-03T05:45:46.596Z,14.00
2018-05-03T05:48:14.847Z,14.00
2018-05-03T05:50:43.523Z,14.00
2018-05-03T05:53:12.499Z,14.00
2018-05-03T05:55:41.815Z,14.00
2018-05-03T05:58:10.055Z,14.20
2018-05-03T06:00:38.418Z,14.20
2018-05-03T06:03:06.651Z,14.30
2018-05-03T06:05:34.896Z,14.40
2018-05-03T06:08:03.744Z,14.50
2018-05-03T06:10:31.979Z,14.40
2018-05-03T06:13:00.223Z,14.50
2018-05-03T06:15:29.576Z,14.60
2018-05-03T06:17:57.832Z,14.60
2018-05-03T06:20:26.461Z,14.70
2018-05-03T06:22:54.795Z,14.70
2018-05-03T06:25:23.043Z,14.90
2018-05-03T06:27:52.068Z,15.10
2018-05-03T06:30:20.339Z,15.10
2018-05-03T06:32:48.603Z,15.10
2018-05-03T06:35:17.216Z,15.20
2018-05-03T06:37:46.033Z,15.20
2018-05-03T06:40:14.271Z,15.20
2018-05-03T06:42:42.631Z,15.30
2018-05-03T06:45:11.683Z,15.30
2018-05-03T06:47:40.060Z,15.20
2018-05-03T06:50:08.300Z,15.30
2018-05-03T06:52:36.580Z,15.20
2018-05-03T06:55:04.827Z,15.30
2018-05-03T06:57:33.849Z,15.30
2018-05-03T07:00:02.693Z,15.20
2018-05-03T07:02:31.864Z,15.30
2018-05-03T07:05:00.363Z,15.40
2018-05-03T07:07:28.608Z,15.50
2018-05-03T07:09:56.880Z,15.50
2018-05-03T07:12:25.092Z,15.50
2018-05-03T07:14:53.370Z,15.60
2018-05-03T07:17:21.611Z,15.60
2018-05-03T07:19:50.838Z,15.70
2018-05-03T07:22:19.257Z,15.70
2018-05-03T07:24:47.500Z,15.80
2018-05-03T07:27:15.743Z,15.70
2018-05-03T07:29:44.008Z,15.70
2018-05-03T07:32:12.252Z,15.80
2018-05-03T07:34:40.562Z,15.80
2018-05-03T07:37:09.716Z,15.90
2018-05-03T07:39:37.973Z,15.90
2018-05-03T07:42:06.252Z,15.90
2018-05-03T07:44:34.604Z,15.90
2018-05-03T07:47:02.845Z,16.00
2018-05-03T07:49:32.241Z,16.10
2018-05-03T07:52:01.267Z,16.10
2018-05-03T07:54:29.543Z,16.10
2018-05-03T07:56:57.788Z,16.20
2018-05-03T07:59:26.062Z,16.30
2018-05-03T08:01:55.074Z,16.50
2018-05-03T08:04:24.880Z,16.70
2018-05-03T08:06:53.447Z,16.70
2018-05-03T08:09:22.708Z,16.90
2018-05-03T08:11:50.947Z,16.90
2018-05-03T08:14:19.208Z,16.90
2018-05-03T08:16:48.360Z,16.90
2018-05-03T08:19:16.598Z,17.10
2018-05-03T08:21:44.871Z,17.20
2018-05-03T08:24:13.883Z,17.20
2018-05-03T08:26:42.123Z,17.20
2018-05-03T08:29:11.575Z,17.30
2018-05-03T08:31:39.827Z,17.30
2018-05-03T08:34:08.466Z,17.40
2018-05-03T08:36:36.712Z,17.50
2018-05-03T08:39:05.867Z,17.50
2018-05-03T08:41:34.149Z,17.60
2018-05-03T08:44:02.428Z,17.60
2018-05-03T08:46:31.427Z,17.90
2018-05-03T08:48:59.676Z,17.80
2018-05-03T08:51:28.831Z,17.90
2018-05-03T08:53:57.068Z,17.90
2018-05-03T08:56:25.302Z,18.10
2018-05-03T08:58:53.567Z,18.20
2018-05-03T09:01:21.864Z,18.20
2018-05-03T09:03:50.056Z,18.30
2018-05-03T09:06:18.319Z,18.40
2018-05-03T09:08:46.555Z,18.60
2018-05-03T09:11:14.801Z,18.80
2018-05-03T09:13:43.761Z,19.00
2018-05-03T09:16:12.000Z,19.20
2018-05-03T09:18:40.408Z,19.30
2018-05-03T09:21:08.743Z,19.40
2018-05-03T09:23:36.995Z,19.50
2018-05-03T09:26:05.284Z,19.70
2018-05-03T09:28:33.547Z,19.80
2018-05-03T09:31:01.801Z,19.90
2018-05-03T09:33:30.036Z,20.10
2018-05-03T09:35:59.352Z,20.20
2018-05-03T09:38:27.606Z,20.40
2018-05-03T09:40:55.839Z,20.60
2018-05-03T09:43:24.097Z,20.70
2018-05-03T09:45:52.337Z,20.70
2018-05-03T09:48:20.648Z,20.60
2018-05-03T09:50:48.908Z,20.50
2018-05-03T09:53:17.647Z,20.50
2018-05-03T09:55:45.893Z,20.60
2018-05-03T09:58:14.735Z,20.60
2018-05-03T10:00:43.580Z,20.60
2018-05-03T10:03:11.823Z,20.70
2018-05-03T10:05:40.520Z,20.70
2018-05-03T10:08:08.759Z,20.70
2018-05-03T10:10:36.995Z,20.70
2018-05-03T10:13:05.264Z,20.80
2018-05-03T10:15:33.499Z,20.70
2018-05-03T10:18:01.801Z,20.70
2018-05-03T10:20:30.228Z,20.60
2018-05-03T10:22:58.559Z,20.50
2018-05-03T10:25:26.804Z,20.60
2018-05-03T10:27:55.168Z,20.60
2018-05-03T10:30:23.415Z,20.80
2018-05-03T10:32:51.650Z,21.10
2018-05-03T10:35:19.921Z,21.30
2018-05-03T10:37:48.153Z,21.50
2018-05-03T10:40:16.391Z,21.60
2018-05-03T10:42:44.791Z,21.60
2018-05-03T10:45:13.009Z,21.70
2018-05-03T10:47:42.893Z,22.10
2018-05-03T10:50:11.156Z,22.10
2018-05-03T10:52:39.399Z,22.30
2018-05-03T10:55:08.071Z,22.70
2018-05-03T10:57:37.115Z,23.60
2018-05-03T11:00:05.359Z,23.60
2018-05-03T11:02:33.723Z,23.90
2018-05-03T11:05:02.228Z,23.80
2018-05-03T11:07:30.733Z,23.90
2018-05-03T11:09:58.955Z,23.70
2018-05-03T11:12:27.981Z,23.70
2018-05-03T11:14:56.227Z,23.70
2018-05-03T11:17:24.671Z,23.80
2018-05-03T11:19:53.080Z,24.10
2018-05-03T11:22:21.388Z,24.70
2018-05-03T11:24:49.635Z,25.50
2018-05-03T11:27:18.279Z,26.30
2018-05-03T11:29:46.595Z,27.10
2018-05-03T11:32:15.597Z,26.90
2018-05-03T11:34:44.678Z,27.40
2018-05-03T11:37:12.907Z,27.30
2018-05-03T11:39:41.139Z,28.30
2018-05-03T11:42:10.428Z,29.70
2018-05-03T11:44:38.663Z,29.60
2018-05-03T11:47:06.911Z,29.90
2018-05-03T11:49:35.517Z,30.00
2018-05-03T11:52:03.755Z,30.20
2018-05-03T11:54:31.999Z,30.70
2018-05-03T11:57:00.391Z,31.10
2018-05-03T11:59:28.675Z,31.50
2018-05-03T12:01:56.919Z,31.40
2018-05-03T12:04:25.164Z,30.90
2018-05-03T12:06:53.411Z,30.40
2018-05-03T12:09:21.647Z,30.40
2018-05-03T12:11:50.326Z,30.80
2018-05-03T12:14:18.588Z,30.90
2018-05-03T12:16:46.828Z,30.40
2018-05-03T12:19:15.871Z,30.30
2018-05-03T12:21:44.115Z,30.30
2018-05-03T12:24:12.531Z,30.30
2018-05-03T12:26:40.783Z,30.40
2018-05-03T12:29:09.021Z,30.30
2018-05-03T12:31:37.265Z,30.40
2018-05-03T12:34:06.560Z,30.60
2018-05-03T12:36:34.819Z,30.60
2018-05-03T12:39:03.062Z,30.40
2018-05-03T12:41:33.000Z,30.60
2018-05-03T12:44:01.240Z,30.60
2018-05-03T12:46:29.471Z,30.80
2018-05-03T12:48:57.736Z,30.70
2018-05-03T12:51:25.979Z,30.60
2018-05-03T12:53:54.982Z,30.00
2018-05-03T12:56:23.653Z,30.00
2018-05-03T12:58:52.931Z,30.00
2018-05-03T13:01:21.176Z,29.90
2018-05-03T13:03:49.449Z,30.20
2018-05-03T13:06:17.723Z,31.10
2018-05-03T13:08:45.971Z,32.10
2018-05-03T13:11:14.238Z,32.80
2018-05-03T13:13:43.249Z,33.50
2018-05-03T13:16:11.487Z,33.50
2018-05-03T13:18:39.896Z,33.30
2018-05-03T13:21:09.708Z,34.10
2018-05-03T13:23:37.941Z,34.10
2018-05-03T13:26:06.194Z,34.40
2018-05-03T13:28:34.436Z,34.60
2018-05-03T13:31:03.456Z,35.10
2018-05-03T13:33:31.712Z,35.70
2018-05-03T13:36:00.731Z,35.70
2018-05-03T13:38:28.969Z,35.80
2018-05-03T13:40:57.295Z,35.50
2018-05-03T13:43:25.532Z,35.70
2018-05-03T13:45:54.591Z,36.20
2018-05-03T13:48:23.428Z,36.10
2018-05-03T13:50:51.699Z,36.20
2018-05-03T13:53:20.016Z,36.40
2018-05-03T13:55:48.992Z,36.40
2018-05-03T13:58:17.239Z,36.30
2018-05-03T14:00:46.388Z,36.40
2018-05-03T14:03:14.777Z,36.70
2018-05-03T14:05:43.257Z,36.80
2018-05-03T14:08:11.493Z,36.70
2018-05-03T14:10:39.887Z,36.60
2018-05-03T14:13:08.421Z,36.60
2018-05-03T14:15:36.636Z,37.20
2018-05-03T14:18:04.980Z,37.60
2018-05-03T14:20:33.225Z,37.90
2018-05-03T14:23:02.087Z,37.40
2018-05-03T14:25:31.399Z,36.20
2018-05-03T14:27:59.635Z,35.50
2018-05-03T14:30:27.875Z,36.20
2018-05-03T14:32:56.144Z,37.00
2018-05-03T14:35:24.408Z,37.50
2018-05-03T14:37:52.652Z,38.00
2018-05-03T14:40:21.480Z,37.60
2018-05-03T14:42:49.775Z,37.30
2018-05-03T14:45:18.049Z,37.20
2018-05-03T14:47:46.655Z,36.20
2018-05-03T14:50:15.183Z,35.20
2018-05-03T14:52:43.427Z,33.70
2018-05-03T14:55:11.792Z,32.50
2018-05-03T14:57:40.881Z,33.30
2018-05-03T15:00:09.245Z,33.20
2018-05-03T15:02:38.003Z,34.10
2018-05-03T15:05:06.296Z,34.90
2018-05-03T15:07:34.684Z,35.90
2018-05-03T15:10:03.223Z,36.60
2018-05-03T15:12:31.650Z,36.80
2018-05-03T15:14:59.878Z,37.20
2018-05-03T15:17:28.240Z,37.30
2018-05-03T15:19:57.244Z,37.60
2018-05-03T15:22:26.251Z,37.80
2018-05-03T15:24:54.596Z,37.80
2018-05-03T15:27:22.839Z,38.20
2018-05-03T15:29:51.080Z,38.30
2018-05-03T15:32:19.788Z,38.30
2018-05-03T15:34:48.042Z,38.20
2018-05-03T15:37:16.271Z,38.00
2018-05-03T15:39:44.531Z,37.50
2018-05-03T15:42:12.920Z,37.40
2018-05-03T15:44:41.243Z,37.30
2018-05-03T15:47:09.453Z,37.20
2018-05-03T15:49:37.752Z,36.80
2018-05-03T15:52:06.017Z,36.80
2018-05-03T15:54:34.331Z,36.40
2018-05-03T15:57:02.573Z,36.40
2018-05-03T15:59:30.847Z,36.60
2018-05-03T16:01:59.126Z,36.70
2018-05-03T16:04:28.023Z,36.50
2018-05-03T16:06:56.401Z,36.20
2018-05-03T16:09:24.814Z,35.80
2018-05-03T16:11:53.824Z,35.90
2018-05-03T16:14:24.143Z,35.90
2018-05-03T16:16:52.763Z,35.80
2018-05-03T16:19:21.068Z,35.60
2018-05-03T16:21:49.449Z,35.20
2018-05-03T16:24:17.886Z,34.90
2018-05-03T16:26:46.409Z,34.70
2018-05-03T16:29:16.015Z,34.80
2018-05-03T16:31:44.264Z,34.90
2018-05-03T16:34:12.776Z,34.90
2018-05-03T16:36:41.214Z,34.40
2018-05-03T16:39:09.863Z,33.70
2018-05-03T16:41:38.310Z,33.50
2018-05-03T16:44:07.044Z,33.70
2018-05-03T16:46:36.280Z,33.90
2018-05-03T16:49:04.986Z,33.80
2018-05-03T16:51:34.186Z,33.70
2018-05-03T16:54:02.432Z,33.50
2018-05-03T16:56:30.736Z,33.40
2018-05-03T16:59:00.052Z,33.40
2018-05-03T17:01:28.840Z,33.40
2018-05-03T17:03:58.024Z,33.30
2018-05-03T17:06:27.018Z,33.30
2018-05-03T17:08:55.427Z,33.40
2018-05-03T17:11:24.607Z,33.30
2018-05-03T17:13:52.847Z,33.00
2018-05-03T17:16:21.662Z,32.80
2018-05-03T17:18:49.879Z,32.60
2018-05-03T17:21:20.756Z,32.20
2018-05-03T17:23:49.444Z,32.10
2018-05-03T17:26:17.804Z,31.90
2018-05-03T17:28:47.105Z,31.60
2018-05-03T17:31:15.373Z,31.40
2018-05-03T17:33:43.912Z,31.30
2018-05-03T17:36:12.276Z,31.10
2018-05-03T17:38:40.776Z,30.70
2018-05-03T17:41:09.006Z,29.90
2018-05-03T17:43:38.555Z,29.20
2018-05-03T17:46:07.005Z,28.60
2018-05-03T17:48:35.512Z,28.20
2018-05-03T17:51:05.001Z,27.70
2018-05-03T17:53:33.887Z,27.40
2018-05-03T17:56:02.308Z,27.00
2018-05-03T17:58:30.756Z,26.80
2018-05-03T18:00:59.081Z,26.50
2018-05-03T18:03:29.327Z,26.10
2018-05-03T18:05:57.663Z,26.10
2018-05-03T18:08:26.980Z,25.90
2018-05-03T18:10:57.179Z,25.40
2018-05-03T18:13:25.551Z,25.40
2018-05-03T18:15:53.956Z,25.30
2018-05-03T18:18:24.544Z,25.10
2018-05-03T18:20:52.840Z,25.00
2018-05-03T18:23:21.257Z,25.00
2018-05-03T18:25:51.234Z,24.80
2018-05-03T18:28:20.481Z,24.80
2018-05-03T18:30:51.048Z,24.50
2018-05-03T18:33:19.424Z,24.50
2018-05-03T18:35:47.724Z,24.40
2018-05-03T18:38:16.129Z,24.40
2018-05-03T18:40:44.483Z,24.30
2018-05-03T18:43:13.788Z,24.20
2018-05-03T18:45:42.199Z,24.00
2018-05-03T18:48:15.160Z,23.60
2018-05-03T18:50:44.034Z,23.60
2018-05-03T18:53:12.736Z,23.50
2018-05-03T18:55:41.099Z,23.40
2018-05-03T18:58:09.363Z,23.20
2018-05-03T19:00:38.583Z,23.10
2018-05-03T19:03:06.976Z,23.00
2018-05-03T19:05:35.376Z,23.00
2018-05-03T19:08:04.789Z,22.60
2018-05-03T19:10:34.059Z,22.50
2018-05-03T19:13:04.929Z,22.40
2018-05-03T19:15:34.071Z,22.40
2018-05-03T19:18:02.460Z,22.30
2018-05-03T19:20:32.918Z,22.20
2018-05-03T19:23:01.256Z,22.10
2018-05-03T19:25:29.706Z,22.10
2018-05-03T19:27:58.163Z,22.10
2018-05-03T19:30:28.407Z,22.00
2018-05-03T19:32:56.745Z,22.00
2018-05-03T19:35:25.294Z,22.00
2018-05-03T19:37:53.478Z,22.00
2018-05-03T19:40:21.864Z,21.90
2018-05-03T19:42:50.331Z,21.90
2018-05-03T19:45:18.639Z,21.80
2018-05-03T19:47:46.916Z,21.80
2018-05-03T19:50:15.637Z,21.80
2018-05-03T19:52:43.842Z,21.80
2018-05-03T19:55:13.717Z,21.70
2018-05-03T19:57:42.821Z,21.60
2018-05-03T20:00:11.272Z,21.60
2018-05-03T20:02:39.487Z,21.60
2018-05-03T20:05:07.844Z,21.60
2018-05-03T20:07:36.851Z,21.50
2018-05-03T20:10:05.454Z,21.50
2018-05-03T20:12:33.704Z,21.40
2018-05-03T20:15:01.955Z,21.40
2018-05-03T20:17:30.363Z,21.30
2018-05-03T20:19:58.764Z,21.30
2018-05-03T20:22:27.089Z,21.20
2018-05-03T20:24:55.530Z,21.20
2018-05-03T20:27:24.521Z,21.10
2018-05-03T20:29:52.767Z,21.00
2018-05-03T20:32:21.204Z,20.90
2018-05-03T20:34:49.644Z,20.80
2018-05-03T20:37:17.968Z,20.70
2018-05-03T20:39:46.354Z,20.70
2018-05-03T20:42:15.056Z,20.70
2018-05-03T20:44:44.067Z,20.50
2018-05-03T20:47:13.316Z,20.30
2018-05-03T20:49:41.586Z,20.30
2018-05-03T20:52:10.726Z,20.20
2018-05-03T20:54:39.744Z,20.20
2018-05-03T20:57:08.095Z,20.20
2018-05-03T20:59:37.115Z,20.00
2018-05-03T21:02:07.284Z,20.00
2018-05-03T21:04:36.003Z,19.80
2018-05-03T21:07:05.023Z,19.60
2018-05-03T21:09:33.251Z,19.50
2018-05-03T21:12:03.027Z,19.50
2018-05-03T21:14:31.420Z,19.50
2018-05-03T21:16:59.657Z,19.50
2018-05-03T21:19:27.947Z,19.50
2018-05-03T21:21:56.319Z,19.50
2018-05-03T21:24:24.739Z,19.40
2018-05-03T21:26:53.308Z,19.40
2018-05-03T21:29:21.559Z,19.40
2018-05-03T21:31:49.995Z,19.40
2018-05-03T21:34:18.932Z,19.40
2018-05-03T21:36:47.159Z,19.30
2018-05-03T21:39:15.402Z,19.20
2018-05-03T21:41:43.930Z,19.10
2018-05-03T21:44:12.226Z,19.10
2018-05-03T21:46:41.255Z,18.90
2018-05-03T21:49:09.947Z,18.90
2018-05-03T21:51:38.324Z,18.80
2018-05-03T21:54:06.572Z,18.80
2018-05-03T21:56:35.961Z,18.70
2018-05-03T21:59:04.975Z,18.60
2018-05-03T22:01:36.365Z,18.60
2018-05-03T22:04:04.664Z,18.70
2018-05-03T22:06:35.240Z,18.60
2018-05-03T22:09:03.487Z,18.60
2018-05-03T22:11:32.591Z,18.60
2018-05-03T22:14:01.443Z,18.60
2018-05-03T22:16:30.060Z,18.60
2018-05-03T22:18:59.092Z,18.60
2018-05-03T22:21:27.335Z,18.60
2018-05-03T22:23:55.774Z,18.70
2018-05-03T22:26:24.775Z,18.60
2018-05-03T22:28:53.027Z,18.60
2018-05-03T22:31:21.269Z,18.60
2018-05-03T22:33:50.911Z,18.60
2018-05-03T22:36:19.155Z,18.60
2018-05-03T22:38:47.392Z,18.50
2018-05-03T22:41:15.656Z,18.60
2018-05-03T22:43:44.722Z,18.60
2018-05-03T22:46:12.968Z,18.60
2018-05-03T22:48:41.238Z,18.50
2018-05-03T22:51:10.327Z,18.50
2018-05-03T22:53:38.563Z,18.50
2018-05-03T22:56:07.927Z,18.50
2018-05-03T22:58:36.236Z,18.50
2018-05-03T23:01:04.481Z,18.40
2018-05-03T23:03:32.788Z,18.30
2018-05-03T23:06:01.532Z,18.30
2018-05-03T23:08:29.775Z,18.30
2018-05-03T23:10:58.291Z,18.20
2018-05-03T23:13:26.534Z,18.20
2018-05-03T23:15:54.771Z,18.20
2018-05-03T23:18:23.635Z,18.20
2018-05-03T23:20:51.879Z,18.20
2018-05-03T23:23:20.119Z,18.20
2018-05-03T23:25:48.378Z,18.10
2018-05-03T23:28:16.619Z,18.00
2018-05-03T23:30:44.851Z,17.90
2018-05-03T23:33:13.119Z,17.80
2018-05-03T23:35:41.355Z,17.90
2018-05-03T23:38:10.364Z,17.70
2018-05-03T23:40:38.844Z,17.70
2018-05-03T23:43:07.081Z,17.70
2018-05-03T23:45:35.535Z,17.60
2018-05-03T23:48:03.814Z,17.50
2018-05-03T23:50:32.978Z,17.50
2018-05-03T23:53:01.221Z,17.50
2018-05-03T23:55:29.485Z,17.50
2018-05-03T23:57:57.720Z,17.50
